sensor_id;sensor_type;location;lat;lon;timestamp;temperature;humidity
1429;DHT22;708;51.442;7.016;2022-10-16T00:01:48;15.80;52.20
1429;DHT22;708;51.442;7.016;2022-10-16T00:04:16;15.80;49.60
1429;DHT22;708;51.442;7.016;2022-10-16T00:06:43;15.80;49.20
1429;DHT22;708;51.442;7.016;2022-10-16T00:09:10;15.80;47.90
1429;DHT22;708;51.442;7.016;2022-10-16T00:11:38;15.80;45.50
1429;DHT22;708;51.442;7.016;2022-10-16T00:14:08;15.80;43.70
1429;DHT22;708;51.442;7.016;2022-10-16T00:16:35;15.80;43.90
1429;DHT22;708;51.442;7.016;2022-10-16T00:19:02;15.80;45.20
1429;DHT22;708;51.442;7.016;2022-10-16T00:21:31;15.80;45.50
1429;DHT22;708;51.442;7.016;2022-10-16T00:24:00;15.80;47.10
1429;DHT22;708;51.442;7.016;2022-10-16T00:26:28;15.80;47.30
1429;DHT22;708;51.442;7.016;2022-10-16T00:28:55;15.80;48.90
1429;DHT22;708;51.442;7.016;2022-10-16T00:31:23;15.70;49.60
1429;DHT22;708;51.442;7.016;2022-10-16T00:33:50;15.70;50.00
1429;DHT22;708;51.442;7.016;2022-10-16T00:36:19;15.70;51.80
1429;DHT22;708;51.442;7.016;2022-10-16T00:38:50;15.70;53.40
1429;DHT22;708;51.442;7.016;2022-10-16T00:41:18;15.70;55.10
1429;DHT22;708;51.442;7.016;2022-10-16T00:43:46;15.70;55.50
1429;DHT22;708;51.442;7.016;2022-10-16T00:46:16;15.70;55.10
1429;DHT22;708;51.442;7.016;2022-10-16T00:48:48;15.70;53.60
1429;DHT22;708;51.442;7.016;2022-10-16T00:51:15;15.70;56.00
1429;DHT22;708;51.442;7.016;2022-10-16T00:53:44;15.70;54.60
1429;DHT22;708;51.442;7.016;2022-10-16T00:56:12;15.70;55.40
1429;DHT22;708;51.442;7.016;2022-10-16T00:58:39;15.70;55.00
1429;DHT22;708;51.442;7.016;2022-10-16T01:01:06;15.70;53.40
1429;DHT22;708;51.442;7.016;2022-10-16T01:03:35;15.60;54.70
1429;DHT22;708;51.442;7.016;2022-10-16T01:06:13;15.60;53.60
1429;DHT22;708;51.442;7.016;2022-10-16T01:08:49;15.70;53.30
1429;DHT22;708;51.442;7.016;2022-10-16T01:11:22;15.60;54.00
1429;DHT22;708;51.442;7.016;2022-10-16T01:13:55;15.60;53.50
1429;DHT22;708;51.442;7.016;2022-10-16T01:16:29;15.60;53.80
1429;DHT22;708;51.442;7.016;2022-10-16T01:19:05;15.60;54.60
1429;DHT22;708;51.442;7.016;2022-10-16T01:21:39;15.60;54.00
1429;DHT22;708;51.442;7.016;2022-10-16T01:24:11;15.50;55.10
1429;DHT22;708;51.442;7.016;2022-10-16T01:27:00;15.50;53.80
1429;DHT22;708;51.442;7.016;2022-10-16T01:29:31;15.50;52.60
1429;DHT22;708;51.442;7.016;2022-10-16T01:32:07;15.50;53.50
1429;DHT22;708;51.442;7.016;2022-10-16T01:34:38;15.50;54.40
1429;DHT22;708;51.442;7.016;2022-10-16T01:37:12;15.50;54.60
1429;DHT22;708;51.442;7.016;2022-10-16T01:39:42;15.40;56.50
1429;DHT22;708;51.442;7.016;2022-10-16T01:42:15;15.40;56.60
1429;DHT22;708;51.442;7.016;2022-10-16T01:44:43;15.40;58.80
1429;DHT22;708;51.442;7.016;2022-10-16T01:47:13;15.40;59.60
1429;DHT22;708;51.442;7.016;2022-10-16T01:49:41;15.30;62.50
1429;DHT22;708;51.442;7.016;2022-10-16T01:52:11;15.30;67.60
1429;DHT22;708;51.442;7.016;2022-10-16T01:54:42;15.40;68.80
1429;DHT22;708;51.442;7.016;2022-10-16T01:57:11;15.40;62.80
1429;DHT22;708;51.442;7.016;2022-10-16T01:59:43;15.60;58.80
1429;DHT22;708;51.442;7.016;2022-10-16T02:02:11;15.50;54.50
1429;DHT22;708;51.442;7.016;2022-10-16T02:04:43;15.60;52.60
1429;DHT22;708;51.442;7.016;2022-10-16T02:07:10;15.60;50.60
1429;DHT22;708;51.442;7.016;2022-10-16T02:09:38;15.60;46.70
1429;DHT22;708;51.442;7.016;2022-10-16T02:12:09;15.60;45.10
1429;DHT22;708;51.442;7.016;2022-10-16T02:14:40;15.70;43.40
1429;DHT22;708;51.442;7.016;2022-10-16T02:17:12;15.70;43.70
1429;DHT22;708;51.442;7.016;2022-10-16T02:19:39;15.70;39.80
1429;DHT22;708;51.442;7.016;2022-10-16T02:22:09;15.70;40.50
1429;DHT22;708;51.442;7.016;2022-10-16T02:24:47;15.70;40.40
1429;DHT22;708;51.442;7.016;2022-10-16T02:27:19;15.60;39.40
1429;DHT22;708;51.442;7.016;2022-10-16T02:29:55;15.50;40.30
1429;DHT22;708;51.442;7.016;2022-10-16T02:32:28;15.50;44.00
1429;DHT22;708;51.442;7.016;2022-10-16T02:34:58;15.50;45.30
1429;DHT22;708;51.442;7.016;2022-10-16T02:37:26;15.50;45.60
1429;DHT22;708;51.442;7.016;2022-10-16T02:39:54;15.50;47.20
1429;DHT22;708;51.442;7.016;2022-10-16T02:42:27;15.50;47.10
1429;DHT22;708;51.442;7.016;2022-10-16T02:44:55;15.60;46.10
1429;DHT22;708;51.442;7.016;2022-10-16T02:47:22;15.60;40.90
1429;DHT22;708;51.442;7.016;2022-10-16T02:49:49;15.70;36.50
1429;DHT22;708;51.442;7.016;2022-10-16T02:52:16;15.80;36.90
1429;DHT22;708;51.442;7.016;2022-10-16T02:54:43;15.80;31.40
1429;DHT22;708;51.442;7.016;2022-10-16T02:57:09;15.80;28.30
1429;DHT22;708;51.442;7.016;2022-10-16T02:59:37;15.80;27.60
1429;DHT22;708;51.442;7.016;2022-10-16T03:02:05;15.80;25.80
1429;DHT22;708;51.442;7.016;2022-10-16T03:04:31;15.80;24.50
1429;DHT22;708;51.442;7.016;2022-10-16T03:06:58;15.80;23.30
1429;DHT22;708;51.442;7.016;2022-10-16T03:09:25;15.80;23.30
1429;DHT22;708;51.442;7.016;2022-10-16T03:11:52;15.80;20.80
1429;DHT22;708;51.442;7.016;2022-10-16T03:14:19;15.80;19.60
1429;DHT22;708;51.442;7.016;2022-10-16T03:16:45;15.80;19.60
1429;DHT22;708;51.442;7.016;2022-10-16T03:19:15;15.80;18.50
1429;DHT22;708;51.442;7.016;2022-10-16T03:21:42;15.80;17.90
1429;DHT22;708;51.442;7.016;2022-10-16T03:24:09;15.80;18.80
1429;DHT22;708;51.442;7.016;2022-10-16T03:26:36;15.80;17.60
1429;DHT22;708;51.442;7.016;2022-10-16T03:29:03;15.70;19.00
1429;DHT22;708;51.442;7.016;2022-10-16T03:31:30;15.70;20.20
1429;DHT22;708;51.442;7.016;2022-10-16T03:33:57;15.70;21.60
1429;DHT22;708;51.442;7.016;2022-10-16T03:36:25;15.70;22.40
1429;DHT22;708;51.442;7.016;2022-10-16T03:38:52;15.80;21.60
1429;DHT22;708;51.442;7.016;2022-10-16T03:41:19;15.70;20.30
1429;DHT22;708;51.442;7.016;2022-10-16T03:43:46;15.70;19.60
1429;DHT22;708;51.442;7.016;2022-10-16T03:46:12;15.70;18.90
1429;DHT22;708;51.442;7.016;2022-10-16T03:48:39;15.70;19.50
1429;DHT22;708;51.442;7.016;2022-10-16T03:51:06;15.60;19.00
1429;DHT22;708;51.442;7.016;2022-10-16T03:53:34;15.60;20.70
1429;DHT22;708;51.442;7.016;2022-10-16T03:56:01;15.60;20.50
1429;DHT22;708;51.442;7.016;2022-10-16T03:58:27;15.50;21.60
1429;DHT22;708;51.442;7.016;2022-10-16T04:00:54;15.50;22.30
1429;DHT22;708;51.442;7.016;2022-10-16T04:03:21;15.40;22.30
1429;DHT22;708;51.442;7.016;2022-10-16T04:05:48;15.40;22.20
1429;DHT22;708;51.442;7.016;2022-10-16T04:08:15;15.30;23.80
1429;DHT22;708;51.442;7.016;2022-10-16T04:10:44;15.30;24.60
1429;DHT22;708;51.442;7.016;2022-10-16T04:13:11;15.30;26.20
1429;DHT22;708;51.442;7.016;2022-10-16T04:15:38;15.30;26.60
1429;DHT22;708;51.442;7.016;2022-10-16T04:18:05;15.20;29.80
1429;DHT22;708;51.442;7.016;2022-10-16T04:20:32;15.20;32.10
1429;DHT22;708;51.442;7.016;2022-10-16T04:22:59;15.20;32.50
1429;DHT22;708;51.442;7.016;2022-10-16T04:25:26;15.20;33.70
1429;DHT22;708;51.442;7.016;2022-10-16T04:27:54;15.10;32.20
1429;DHT22;708;51.442;7.016;2022-10-16T04:30:22;15.10;33.20
1429;DHT22;708;51.442;7.016;2022-10-16T04:32:49;15.10;33.80
1429;DHT22;708;51.442;7.016;2022-10-16T04:35:16;15.10;35.10
1429;DHT22;708;51.442;7.016;2022-10-16T04:37:42;15.10;35.70
1429;DHT22;708;51.442;7.016;2022-10-16T04:40:10;15.10;36.00
1429;DHT22;708;51.442;7.016;2022-10-16T04:42:36;15.10;37.60
1429;DHT22;708;51.442;7.016;2022-10-16T04:45:06;15.00;38.10
1429;DHT22;708;51.442;7.016;2022-10-16T04:47:33;15.00;37.90
1429;DHT22;708;51.442;7.016;2022-10-16T04:50:00;15.00;38.40
1429;DHT22;708;51.442;7.016;2022-10-16T04:52:27;15.00;39.00
1429;DHT22;708;51.442;7.016;2022-10-16T04:54:54;14.90;40.70
1429;DHT22;708;51.442;7.016;2022-10-16T04:57:25;14.90;42.40
1429;DHT22;708;51.442;7.016;2022-10-16T04:59:52;14.90;43.20
1429;DHT22;708;51.442;7.016;2022-10-16T05:02:20;15.00;43.90
1429;DHT22;708;51.442;7.016;2022-10-16T05:04:47;15.00;43.10
1429;DHT22;708;51.442;7.016;2022-10-16T05:07:14;15.00;40.80
1429;DHT22;708;51.442;7.016;2022-10-16T05:09:40;15.00;39.70
1429;DHT22;708;51.442;7.016;2022-10-16T05:12:07;15.10;40.40
1429;DHT22;708;51.442;7.016;2022-10-16T05:14:34;15.20;36.70
1429;DHT22;708;51.442;7.016;2022-10-16T05:17:01;15.20;32.80
1429;DHT22;708;51.442;7.016;2022-10-16T05:19:29;15.10;35.40
1429;DHT22;708;51.442;7.016;2022-10-16T05:21:56;15.10;34.70
1429;DHT22;708;51.442;7.016;2022-10-16T05:24:22;15.10;34.40
1429;DHT22;708;51.442;7.016;2022-10-16T05:26:50;15.10;35.30
1429;DHT22;708;51.442;7.016;2022-10-16T05:29:16;15.10;35.10
1429;DHT22;708;51.442;7.016;2022-10-16T05:31:43;15.10;35.10
1429;DHT22;708;51.442;7.016;2022-10-16T05:34:10;15.10;35.10
1429;DHT22;708;51.442;7.016;2022-10-16T05:36:38;15.10;36.20
1429;DHT22;708;51.442;7.016;2022-10-16T05:39:05;15.10;37.10
1429;DHT22;708;51.442;7.016;2022-10-16T05:41:31;15.10;36.90
1429;DHT22;708;51.442;7.016;2022-10-16T05:43:58;15.10;37.80
1429;DHT22;708;51.442;7.016;2022-10-16T05:46:25;15.10;37.50
1429;DHT22;708;51.442;7.016;2022-10-16T05:48:52;15.10;37.30
1429;DHT22;708;51.442;7.016;2022-10-16T05:51:19;15.10;37.30
1429;DHT22;708;51.442;7.016;2022-10-16T05:53:47;15.10;41.00
1429;DHT22;708;51.442;7.016;2022-10-16T05:56:14;15.10;43.00
1429;DHT22;708;51.442;7.016;2022-10-16T05:58:41;15.10;41.80
1429;DHT22;708;51.442;7.016;2022-10-16T06:01:11;15.00;41.90
1429;DHT22;708;51.442;7.016;2022-10-16T06:03:38;15.00;44.00
1429;DHT22;708;51.442;7.016;2022-10-16T06:06:09;15.00;45.00
1429;DHT22;708;51.442;7.016;2022-10-16T06:08:37;15.00;43.80
1429;DHT22;708;51.442;7.016;2022-10-16T06:11:10;15.00;45.20
1429;DHT22;708;51.442;7.016;2022-10-16T06:13:38;15.00;44.30
1429;DHT22;708;51.442;7.016;2022-10-16T06:16:07;15.00;43.20
1429;DHT22;708;51.442;7.016;2022-10-16T06:18:36;15.00;44.80
1429;DHT22;708;51.442;7.016;2022-10-16T06:21:08;15.00;47.70
1429;DHT22;708;51.442;7.016;2022-10-16T06:26:46;15.10;47.00
1429;DHT22;708;51.442;7.016;2022-10-16T06:29:35;15.10;44.70
1429;DHT22;708;51.442;7.016;2022-10-16T06:32:34;15.10;43.70
1429;DHT22;708;51.442;7.016;2022-10-16T06:35:01;15.10;43.50
1429;DHT22;708;51.442;7.016;2022-10-16T06:37:27;15.20;42.50
1429;DHT22;708;51.442;7.016;2022-10-16T06:40:01;15.20;42.70
1429;DHT22;708;51.442;7.016;2022-10-16T06:43:00;15.40;44.10
1429;DHT22;708;51.442;7.016;2022-10-16T06:48:54;16.40;4.90
1429;DHT22;708;51.442;7.016;2022-10-16T06:51:23;16.70;1.00
1429;DHT22;708;51.442;7.016;2022-10-16T06:56:55;16.90;1.00
1429;DHT22;708;51.442;7.016;2022-10-16T06:59:24;16.80;1.00
1429;DHT22;708;51.442;7.016;2022-10-16T07:01:50;16.70;1.00
1429;DHT22;708;51.442;7.016;2022-10-16T07:04:18;16.60;1.00
1429;DHT22;708;51.442;7.016;2022-10-16T07:06:44;16.60;1.00
1429;DHT22;708;51.442;7.016;2022-10-16T07:09:11;16.60;1.00
1429;DHT22;708;51.442;7.016;2022-10-16T07:11:39;16.80;1.00
1429;DHT22;708;51.442;7.016;2022-10-16T07:14:14;17.10;1.00
1429;DHT22;708;51.442;7.016;2022-10-16T07:16:43;17.90;1.00
1429;DHT22;708;51.442;7.016;2022-10-16T07:19:10;18.70;1.00
1429;DHT22;708;51.442;7.016;2022-10-16T07:21:40;18.70;1.00
1429;DHT22;708;51.442;7.016;2022-10-16T07:24:11;18.50;1.00
1429;DHT22;708;51.442;7.016;2022-10-16T07:26:39;18.20;1.00
1429;DHT22;708;51.442;7.016;2022-10-16T07:29:09;17.90;1.00
1429;DHT22;708;51.442;7.016;2022-10-16T07:31:39;17.70;1.00
1429;DHT22;708;51.442;7.016;2022-10-16T07:34:07;17.50;1.00
1429;DHT22;708;51.442;7.016;2022-10-16T07:36:34;17.30;1.00
1429;DHT22;708;51.442;7.016;2022-10-16T07:39:01;17.60;1.00
1429;DHT22;708;51.442;7.016;2022-10-16T07:41:28;18.60;1.00
1429;DHT22;708;51.442;7.016;2022-10-16T07:43:56;20.20;1.00
1429;DHT22;708;51.442;7.016;2022-10-16T07:46:25;21.90;99.90
1429;DHT22;708;51.442;7.016;2022-10-16T07:48:52;23.50;1.00
1429;DHT22;708;51.442;7.016;2022-10-16T07:51:22;24.40;1.00
1429;DHT22;708;51.442;7.016;2022-10-16T07:53:49;25.20;99.90
1429;DHT22;708;51.442;7.016;2022-10-16T07:56:17;26.30;99.90
1429;DHT22;708;51.442;7.016;2022-10-16T07:58:44;27.10;10.60
1429;DHT22;708;51.442;7.016;2022-10-16T08:01:13;27.70;1.00
1429;DHT22;708;51.442;7.016;2022-10-16T08:03:42;28.10;99.90
1429;DHT22;708;51.442;7.016;2022-10-16T08:06:09;28.40;99.90
1429;DHT22;708;51.442;7.016;2022-10-16T08:08:37;28.50;99.90
1429;DHT22;708;51.442;7.016;2022-10-16T08:11:04;29.00;99.90
1429;DHT22;708;51.442;7.016;2022-10-16T08:13:31;29.40;99.90
1429;DHT22;708;51.442;7.016;2022-10-16T08:15:58;29.80;99.90
1429;DHT22;708;51.442;7.016;2022-10-16T08:18:26;29.90;99.90
1429;DHT22;708;51.442;7.016;2022-10-16T08:21:06;30.10;99.90
1429;DHT22;708;51.442;7.016;2022-10-16T08:23:34;30.40;99.90
1429;DHT22;708;51.442;7.016;2022-10-16T08:26:05;30.80;99.90
1429;DHT22;708;51.442;7.016;2022-10-16T08:28:32;31.20;99.90
1429;DHT22;708;51.442;7.016;2022-10-16T08:31:05;31.60;99.90
1429;DHT22;708;51.442;7.016;2022-10-16T08:33:32;31.70;99.90
1429;DHT22;708;51.442;7.016;2022-10-16T08:36:00;31.70;99.90
1429;DHT22;708;51.442;7.016;2022-10-16T08:38:27;31.80;99.90
1429;DHT22;708;51.442;7.016;2022-10-16T08:40:58;31.40;99.90
1429;DHT22;708;51.442;7.016;2022-10-16T08:43:39;31.40;99.90
1429;DHT22;708;51.442;7.016;2022-10-16T08:46:21;31.00;99.90
1429;DHT22;708;51.442;7.016;2022-10-16T08:48:53;30.70;99.90
1429;DHT22;708;51.442;7.016;2022-10-16T08:51:22;30.60;99.90
1429;DHT22;708;51.442;7.016;2022-10-16T08:53:52;30.60;99.90
1429;DHT22;708;51.442;7.016;2022-10-16T08:56:20;30.80;99.90
1429;DHT22;708;51.442;7.016;2022-10-16T08:58:49;30.90;99.90
1429;DHT22;708;51.442;7.016;2022-10-16T09:01:19;30.90;99.90
1429;DHT22;708;51.442;7.016;2022-10-16T09:04:05;30.90;99.90
1429;DHT22;708;51.442;7.016;2022-10-16T09:06:40;31.00;99.90
1429;DHT22;708;51.442;7.016;2022-10-16T09:09:31;30.90;99.90
1429;DHT22;708;51.442;7.016;2022-10-16T09:12:05;30.50;99.90
1429;DHT22;708;51.442;7.016;2022-10-16T09:15:00;30.10;99.90
1429;DHT22;708;51.442;7.016;2022-10-16T09:17:44;29.90;99.90
1429;DHT22;708;51.442;7.016;2022-10-16T09:20:23;29.90;99.90
1429;DHT22;708;51.442;7.016;2022-10-16T09:22:57;30.10;99.90
1429;DHT22;708;51.442;7.016;2022-10-16T09:25:26;30.10;99.90
1429;DHT22;708;51.442;7.016;2022-10-16T09:27:54;29.90;99.90
1429;DHT22;708;51.442;7.016;2022-10-16T09:30:26;30.00;99.90
1429;DHT22;708;51.442;7.016;2022-10-16T09:32:55;30.10;99.90
1429;DHT22;708;51.442;7.016;2022-10-16T09:35:31;29.70;99.90
1429;DHT22;708;51.442;7.016;2022-10-16T09:37:58;29.30;99.90
1429;DHT22;708;51.442;7.016;2022-10-16T09:40:26;29.10;99.90
1429;DHT22;708;51.442;7.016;2022-10-16T09:43:00;28.80;99.90
1429;DHT22;708;51.442;7.016;2022-10-16T09:45:29;28.40;99.90
1429;DHT22;708;51.442;7.016;2022-10-16T09:47:56;27.90;99.90
1429;DHT22;708;51.442;7.016;2022-10-16T09:50:25;26.90;99.90
1429;DHT22;708;51.442;7.016;2022-10-16T09:53:04;25.90;99.90
1429;DHT22;708;51.442;7.016;2022-10-16T09:55:33;24.90;99.90
1429;DHT22;708;51.442;7.016;2022-10-16T09:58:00;24.30;1.00
1429;DHT22;708;51.442;7.016;2022-10-16T10:00:26;23.70;99.90
1429;DHT22;708;51.442;7.016;2022-10-16T10:02:56;23.30;99.90
1429;DHT22;708;51.442;7.016;2022-10-16T10:05:25;22.90;99.90
1429;DHT22;708;51.442;7.016;2022-10-16T10:07:57;22.60;99.90
1429;DHT22;708;51.442;7.016;2022-10-16T10:10:26;22.40;82.40
1429;DHT22;708;51.442;7.016;2022-10-16T10:12:53;22.20;99.90
1429;DHT22;708;51.442;7.016;2022-10-16T10:15:21;22.00;99.90
1429;DHT22;708;51.442;7.016;2022-10-16T10:17:51;21.80;1.00
1429;DHT22;708;51.442;7.016;2022-10-16T10:20:27;21.60;1.00
1429;DHT22;708;51.442;7.016;2022-10-16T10:22:55;21.60;1.00
1429;DHT22;708;51.442;7.016;2022-10-16T10:25:39;21.50;1.00
1429;DHT22;708;51.442;7.016;2022-10-16T10:28:25;21.40;64.10
1429;DHT22;708;51.442;7.016;2022-10-16T10:31:01;21.40;42.00
1429;DHT22;708;51.442;7.016;2022-10-16T10:33:37;21.40;7.50
1429;DHT22;708;51.442;7.016;2022-10-16T10:36:20;21.30;31.30
1429;DHT22;708;51.442;7.016;2022-10-16T10:38:51;21.10;75.10
1429;DHT22;708;51.442;7.016;2022-10-16T10:44:42;20.90;99.90
1429;DHT22;708;51.442;7.016;2022-10-16T10:47:19;20.90;99.90
1429;DHT22;708;51.442;7.016;2022-10-16T10:49:59;21.00;99.90
1429;DHT22;708;51.442;7.016;2022-10-16T10:52:38;21.10;79.70
1429;DHT22;708;51.442;7.016;2022-10-16T10:55:14;21.20;1.00
1429;DHT22;708;51.442;7.016;2022-10-16T10:57:49;21.10;1.00
1429;DHT22;708;51.442;7.016;2022-10-16T11:00:21;20.90;1.00
1429;DHT22;708;51.442;7.016;2022-10-16T11:02:54;20.90;77.00
1429;DHT22;708;51.442;7.016;2022-10-16T11:05:38;20.90;28.70
1429;DHT22;708;51.442;7.016;2022-10-16T11:08:13;20.90;57.10
1429;DHT22;708;51.442;7.016;2022-10-16T11:10:46;20.90;55.10
1429;DHT22;708;51.442;7.016;2022-10-16T11:13:26;20.90;25.60
1429;DHT22;708;51.442;7.016;2022-10-16T11:15:58;20.90;95.80
1429;DHT22;708;51.442;7.016;2022-10-16T11:18:30;21.00;22.40
1429;DHT22;708;51.442;7.016;2022-10-16T11:21:04;21.00;1.00
1429;DHT22;708;51.442;7.016;2022-10-16T11:23:37;21.00;1.00
1429;DHT22;708;51.442;7.016;2022-10-16T11:26:10;21.00;1.00
1429;DHT22;708;51.442;7.016;2022-10-16T11:28:43;21.00;1.00
1429;DHT22;708;51.442;7.016;2022-10-16T11:31:16;21.00;1.00
1429;DHT22;708;51.442;7.016;2022-10-16T11:33:49;21.00;1.00
1429;DHT22;708;51.442;7.016;2022-10-16T11:36:19;21.10;1.00
1429;DHT22;708;51.442;7.016;2022-10-16T11:38:54;21.20;1.00
1429;DHT22;708;51.442;7.016;2022-10-16T11:41:27;21.40;99.90
1429;DHT22;708;51.442;7.016;2022-10-16T11:44:10;21.70;99.90
1429;DHT22;708;51.442;7.016;2022-10-16T11:46:48;21.80;99.90
1429;DHT22;708;51.442;7.016;2022-10-16T11:49:19;22.00;68.60
1429;DHT22;708;51.442;7.016;2022-10-16T11:51:51;22.00;1.00
1429;DHT22;708;51.442;7.016;2022-10-16T11:54:29;22.10;99.90
1429;DHT22;708;51.442;7.016;2022-10-16T11:57:07;22.10;11.30
1429;DHT22;708;51.442;7.016;2022-10-16T11:59:45;22.10;1.00
1429;DHT22;708;51.442;7.016;2022-10-16T12:02:37;22.10;99.90
1429;DHT22;708;51.442;7.016;2022-10-16T12:05:18;22.10;1.00
1429;DHT22;708;51.442;7.016;2022-10-16T12:07:54;22.00;46.90
1429;DHT22;708;51.442;7.016;2022-10-16T12:10:26;22.00;99.90
1429;DHT22;708;51.442;7.016;2022-10-16T12:12:54;21.90;1.00
1429;DHT22;708;51.442;7.016;2022-10-16T12:15:24;22.00;1.00
1429;DHT22;708;51.442;7.016;2022-10-16T12:17:52;22.00;99.90
1429;DHT22;708;51.442;7.016;2022-10-16T12:20:25;22.00;20.20
1429;DHT22;708;51.442;7.016;2022-10-16T12:22:54;22.00;1.00
1429;DHT22;708;51.442;7.016;2022-10-16T12:25:26;21.90;99.90
1429;DHT22;708;51.442;7.016;2022-10-16T12:27:59;21.80;1.00
1429;DHT22;708;51.442;7.016;2022-10-16T12:30:28;21.80;99.90
1429;DHT22;708;51.442;7.016;2022-10-16T12:32:56;21.70;1.00
1429;DHT22;708;51.442;7.016;2022-10-16T12:35:26;21.70;1.00
1429;DHT22;708;51.442;7.016;2022-10-16T12:37:53;21.70;1.00
1429;DHT22;708;51.442;7.016;2022-10-16T12:40:27;21.60;1.00
1429;DHT22;708;51.442;7.016;2022-10-16T12:42:55;21.50;99.90
1429;DHT22;708;51.442;7.016;2022-10-16T12:45:30;21.50;11.30
1429;DHT22;708;51.442;7.016;2022-10-16T12:47:58;21.60;74.10
1429;DHT22;708;51.442;7.016;2022-10-16T12:50:32;21.60;1.00
1429;DHT22;708;51.442;7.016;2022-10-16T12:52:59;21.70;1.00
1429;DHT22;708;51.442;7.016;2022-10-16T12:55:34;21.80;99.90
1429;DHT22;708;51.442;7.016;2022-10-16T12:58:17;21.80;91.70
1429;DHT22;708;51.442;7.016;2022-10-16T13:00:50;21.80;99.90
1429;DHT22;708;51.442;7.016;2022-10-16T13:03:45;21.80;99.90
1429;DHT22;708;51.442;7.016;2022-10-16T13:06:20;21.80;99.90
1429;DHT22;708;51.442;7.016;2022-10-16T13:09:18;21.90;70.70
1429;DHT22;708;51.442;7.016;2022-10-16T13:17:37;21.90;99.90
1429;DHT22;708;51.442;7.016;2022-10-16T13:20:13;21.90;1.00
1429;DHT22;708;51.442;7.016;2022-10-16T13:22:51;21.80;99.90
1429;DHT22;708;51.442;7.016;2022-10-16T13:25:34;21.70;99.90
1429;DHT22;708;51.442;7.016;2022-10-16T13:28:08;21.70;99.90
1429;DHT22;708;51.442;7.016;2022-10-16T13:30:39;21.60;99.90
1429;DHT22;708;51.442;7.016;2022-10-16T13:33:12;21.50;1.00
1429;DHT22;708;51.442;7.016;2022-10-16T13:35:48;21.40;99.90
1429;DHT22;708;51.442;7.016;2022-10-16T13:38:18;21.20;1.00
1429;DHT22;708;51.442;7.016;2022-10-16T13:40:53;21.20;1.00
1429;DHT22;708;51.442;7.016;2022-10-16T13:43:25;21.10;1.00
1429;DHT22;708;51.442;7.016;2022-10-16T13:45:57;21.00;14.00
1429;DHT22;708;51.442;7.016;2022-10-16T13:48:24;21.00;1.00
1429;DHT22;708;51.442;7.016;2022-10-16T13:51:12;21.00;1.00
1429;DHT22;708;51.442;7.016;2022-10-16T13:53:40;21.00;56.40
1429;DHT22;708;51.442;7.016;2022-10-16T13:56:10;21.10;1.00
1429;DHT22;708;51.442;7.016;2022-10-16T13:58:38;21.10;92.90
1429;DHT22;708;51.442;7.016;2022-10-16T14:01:16;21.20;99.90
1429;DHT22;708;51.442;7.016;2022-10-16T14:03:43;21.30;1.00
1429;DHT22;708;51.442;7.016;2022-10-16T14:06:13;21.40;99.90
1429;DHT22;708;51.442;7.016;2022-10-16T14:08:42;21.60;92.20
1429;DHT22;708;51.442;7.016;2022-10-16T14:11:10;21.80;1.00
1429;DHT22;708;51.442;7.016;2022-10-16T14:13:43;21.80;99.90
1429;DHT22;708;51.442;7.016;2022-10-16T14:16:16;21.90;1.00
1429;DHT22;708;51.442;7.016;2022-10-16T14:18:55;22.00;1.00
1429;DHT22;708;51.442;7.016;2022-10-16T14:21:22;22.00;99.90
1429;DHT22;708;51.442;7.016;2022-10-16T14:23:49;22.00;1.00
1429;DHT22;708;51.442;7.016;2022-10-16T14:26:27;21.90;1.00
1429;DHT22;708;51.442;7.016;2022-10-16T14:29:11;21.90;99.90
1429;DHT22;708;51.442;7.016;2022-10-16T14:31:41;21.80;99.90
1429;DHT22;708;51.442;7.016;2022-10-16T14:34:28;21.70;99.90
1429;DHT22;708;51.442;7.016;2022-10-16T14:36:56;21.70;99.90
1429;DHT22;708;51.442;7.016;2022-10-16T14:39:26;21.70;99.90
1429;DHT22;708;51.442;7.016;2022-10-16T14:41:56;21.60;99.90
1429;DHT22;708;51.442;7.016;2022-10-16T14:44:28;21.70;99.90
1429;DHT22;708;51.442;7.016;2022-10-16T14:46:55;21.60;99.90
1429;DHT22;708;51.442;7.016;2022-10-16T14:49:22;21.70;1.00
1429;DHT22;708;51.442;7.016;2022-10-16T14:51:50;21.70;99.90
1429;DHT22;708;51.442;7.016;2022-10-16T14:54:18;21.70;99.90
1429;DHT22;708;51.442;7.016;2022-10-16T14:56:47;21.60;1.00
1429;DHT22;708;51.442;7.016;2022-10-16T14:59:17;21.50;72.40
1429;DHT22;708;51.442;7.016;2022-10-16T15:01:47;21.50;1.00
1429;DHT22;708;51.442;7.016;2022-10-16T15:04:17;21.40;1.00
1429;DHT22;708;51.442;7.016;2022-10-16T15:06:44;21.40;1.00
1429;DHT22;708;51.442;7.016;2022-10-16T15:09:11;21.50;1.00
1429;DHT22;708;51.442;7.016;2022-10-16T15:11:38;21.40;46.90
1429;DHT22;708;51.442;7.016;2022-10-16T15:14:05;21.40;99.90
1429;DHT22;708;51.442;7.016;2022-10-16T15:16:32;21.40;99.90
1429;DHT22;708;51.442;7.016;2022-10-16T15:19:00;21.40;99.90
1429;DHT22;708;51.442;7.016;2022-10-16T15:21:29;21.30;99.90
1429;DHT22;708;51.442;7.016;2022-10-16T15:23:56;21.20;99.90
1429;DHT22;708;51.442;7.016;2022-10-16T15:26:23;21.20;99.90
1429;DHT22;708;51.442;7.016;2022-10-16T15:28:50;21.20;99.90
1429;DHT22;708;51.442;7.016;2022-10-16T15:31:17;21.10;1.00
1429;DHT22;708;51.442;7.016;2022-10-16T15:33:44;21.10;1.00
1429;DHT22;708;51.442;7.016;2022-10-16T15:36:23;21.10;1.00
1429;DHT22;708;51.442;7.016;2022-10-16T15:38:50;21.00;1.00
1429;DHT22;708;51.442;7.016;2022-10-16T15:41:17;21.00;1.00
1429;DHT22;708;51.442;7.016;2022-10-16T15:43:44;21.00;1.00
1429;DHT22;708;51.442;7.016;2022-10-16T15:46:12;21.00;1.00
1429;DHT22;708;51.442;7.016;2022-10-16T15:48:39;20.80;1.00
1429;DHT22;708;51.442;7.016;2022-10-16T15:51:07;20.70;1.00
1429;DHT22;708;51.442;7.016;2022-10-16T15:53:36;20.70;21.00
1429;DHT22;708;51.442;7.016;2022-10-16T15:56:03;20.70;90.10
1429;DHT22;708;51.442;7.016;2022-10-16T15:58:30;20.60;99.90
1429;DHT22;708;51.442;7.016;2022-10-16T16:00:57;20.50;99.90
1429;DHT22;708;51.442;7.016;2022-10-16T16:03:26;20.40;99.90
1429;DHT22;708;51.442;7.016;2022-10-16T16:05:53;20.40;99.90
1429;DHT22;708;51.442;7.016;2022-10-16T16:08:20;20.30;99.90
1429;DHT22;708;51.442;7.016;2022-10-16T16:10:58;20.20;99.90
1429;DHT22;708;51.442;7.016;2022-10-16T16:13:25;20.20;99.90
1429;DHT22;708;51.442;7.016;2022-10-16T16:15:52;20.20;99.90
1429;DHT22;708;51.442;7.016;2022-10-16T16:18:19;20.10;99.90
1429;DHT22;708;51.442;7.016;2022-10-16T16:20:46;20.20;99.90
1429;DHT22;708;51.442;7.016;2022-10-16T16:23:12;20.00;99.90
1429;DHT22;708;51.442;7.016;2022-10-16T16:25:40;20.00;99.90
1429;DHT22;708;51.442;7.016;2022-10-16T16:28:08;20.00;99.90
1429;DHT22;708;51.442;7.016;2022-10-16T16:30:36;19.90;99.90
1429;DHT22;708;51.442;7.016;2022-10-16T16:33:03;19.80;99.90
1429;DHT22;708;51.442;7.016;2022-10-16T16:35:29;19.70;99.90
1429;DHT22;708;51.442;7.016;2022-10-16T16:37:56;19.60;99.90
1429;DHT22;708;51.442;7.016;2022-10-16T16:40:23;19.60;99.90
1429;DHT22;708;51.442;7.016;2022-10-16T16:42:50;19.50;1.00
1429;DHT22;708;51.442;7.016;2022-10-16T16:45:18;19.40;1.00
1429;DHT22;708;51.442;7.016;2022-10-16T16:47:45;19.40;1.00
1429;DHT22;708;51.442;7.016;2022-10-16T16:50:11;19.20;1.00
1429;DHT22;708;51.442;7.016;2022-10-16T16:52:38;19.00;1.00
1429;DHT22;708;51.442;7.016;2022-10-16T16:55:05;19.00;1.00
1429;DHT22;708;51.442;7.016;2022-10-16T16:57:32;19.00;1.00
1429;DHT22;708;51.442;7.016;2022-10-16T16:59:59;19.00;1.00
1429;DHT22;708;51.442;7.016;2022-10-16T17:02:27;19.00;1.00